Time;durP1;ratioP1;P1;durP2;ratioP2;P2;SDS_P1;SDS_P2;PMS_P1;PMS_P2;Temp;Humidity;BMP_temperature;BMP_pressure;BME280_temperature;BME280_humidity;BME280_pressure;Samples;Min_cycle;Max_cycle;Signal;HPM_P1;HPM_P2
2022/03/31 00:02:10;;;;;;;33.40;17.13;;;9.80;99.90;;;;;;5097001;28;20059;-63
2022/03/31 00:04:37;;;;;;;30.08;16.40;;;9.90;99.90;;;;;;5095901;28;20032;-63
2022/03/31 00:07:04;;;;;;;29.48;15.77;;;9.90;99.90;;;;;;5095839;28;20035;-63
2022/03/31 00:09:30;;;;;;;25.58;14.75;;;9.80;99.90;;;;;;5095757;28;20024;-63
2022/03/31 00:11:57;;;;;;;26.60;14.90;;;9.80;99.90;;;;;;5095953;28;20031;-63
2022/03/31 00:14:23;;;;;;;26.55;14.50;;;9.80;99.90;;;;;;5095963;28;20078;-63
2022/03/31 00:16:48;;;;;;;28.42;15.02;;;9.70;99.90;;;;;;5097227;28;20471;-63
2022/03/31 00:19:14;;;;;;;29.08;15.43;;;9.70;99.90;;;;;;5096816;28;20039;-63
2022/03/31 00:21:40;;;;;;;25.77;15.23;;;9.60;99.90;;;;;;5112519;28;20067;-63
2022/03/31 00:24:07;;;;;;;32.78;15.57;;;9.70;99.90;;;;;;5095178;28;20096;-63
2022/03/31 00:26:33;;;;;;;31.25;15.77;;;9.70;99.90;;;;;;5095725;28;20026;-63
2022/03/31 00:28:59;;;;;;;29.17;15.32;;;9.70;99.90;;;;;;5096633;28;20034;-63
2022/03/31 00:31:24;;;;;;;29.92;15.48;;;9.70;99.90;;;;;;5096878;28;20020;-63
2022/03/31 00:33:50;;;;;;;27.67;15.13;;;9.60;99.90;;;;;;5096579;28;20093;-63
2022/03/31 00:36:15;;;;;;;28.52;15.90;;;9.60;99.90;;;;;;5096201;28;20031;-63
2022/03/31 00:39:28;;;;;;;29.30;15.65;;;9.60;99.90;;;;;;5096247;28;20387;-63
2022/03/31 00:41:27;;;;;;;30.23;15.45;;;9.60;99.90;;;;;;5095992;28;20115;-63
2022/03/31 00:43:54;;;;;;;31.80;15.88;;;9.60;99.90;;;;;;5096703;28;20055;-63
2022/03/31 00:46:23;;;;;;;30.50;15.18;;;9.50;99.90;;;;;;5096252;28;20024;-63
2022/03/31 00:48:48;;;;;;;28.25;14.30;;;9.50;99.90;;;;;;5096311;28;20056;-63
2022/03/31 00:51:14;;;;;;;35.35;15.07;;;9.50;99.90;;;;;;5094926;28;20083;-63
2022/03/31 00:53:40;;;;;;;25.77;14.38;;;9.40;99.90;;;;;;5096197;28;20073;-63
2022/03/31 00:56:06;;;;;;;29.42;15.15;;;9.40;99.90;;;;;;5094891;28;20036;-63
2022/03/31 00:58:33;;;;;;;25.25;15.48;;;9.30;99.90;;;;;;5096029;28;20081;-63
2022/03/31 01:00:59;;;;;;;31.92;15.68;;;9.30;99.90;;;;;;5095992;28;20032;-63
2022/03/31 01:03:24;;;;;;;31.38;16.55;;;9.20;99.90;;;;;;5095701;28;20024;-63
2022/03/31 01:05:50;;;;;;;26.40;15.32;;;9.20;99.90;;;;;;5094731;28;20034;-63
2022/03/31 01:08:17;;;;;;;31.17;16.13;;;9.10;99.90;;;;;;5096086;28;20031;-63
2022/03/31 01:10:44;;;;;;;28.27;15.20;;;9.10;99.90;;;;;;5096608;28;20034;-63
2022/03/31 01:13:10;;;;;;;32.35;14.77;;;9.10;99.90;;;;;;5095608;28;20077;-65
2022/03/31 01:15:36;;;;;;;29.35;15.10;;;9.10;99.90;;;;;;5095843;28;20430;-63
2022/03/31 01:18:02;;;;;;;25.05;14.88;;;9.00;99.90;;;;;;5095314;28;20032;-63
2022/03/31 01:20:27;;;;;;;30.50;15.60;;;9.00;99.90;;;;;;5094673;28;20380;-63
2022/03/31 01:22:53;;;;;;;26.30;15.13;;;9.00;99.90;;;;;;5095443;28;20024;-63
2022/03/31 01:25:19;;;;;;;29.33;15.52;;;9.00;99.90;;;;;;5095697;28;20031;-63
2022/03/31 01:27:46;;;;;;;28.83;15.57;;;9.00;99.90;;;;;;5095533;28;20028;-63
2022/03/31 01:30:18;;;;;;;28.25;14.88;;;9.00;99.90;;;;;;5094280;28;20030;-63
2022/03/31 01:32:45;;;;;;;28.63;15.75;;;9.00;99.90;;;;;;5095459;28;20353;-63
2022/03/31 01:35:11;;;;;;;25.88;14.68;;;9.00;99.90;;;;;;5095112;28;20032;-63
2022/03/31 01:37:37;;;;;;;30.35;15.93;;;8.90;99.90;;;;;;5095115;28;20446;-62
2022/03/31 01:40:04;;;;;;;29.42;16.30;;;8.90;99.90;;;;;;5094919;28;20040;-63
2022/03/31 01:42:30;;;;;;;28.83;15.55;;;8.90;99.90;;;;;;5095325;28;20028;-63
2022/03/31 01:44:57;;;;;;;26.83;15.48;;;8.90;99.90;;;;;;5093940;28;20032;-63
2022/03/31 01:47:23;;;;;;;32.72;15.93;;;8.90;99.90;;;;;;5093866;28;20024;-63
2022/03/31 01:49:48;;;;;;;34.60;16.50;;;8.90;99.90;;;;;;5095146;28;20085;-63
2022/03/31 01:52:14;;;;;;;31.75;16.70;;;8.90;99.90;;;;;;5095192;28;20027;-63
2022/03/31 01:54:41;;;;;;;32.17;16.77;;;8.90;99.90;;;;;;5110765;28;20020;-63
2022/03/31 01:57:06;;;;;;;35.20;18.15;;;8.90;99.90;;;;;;5095000;28;20020;-63
2022/03/31 01:59:36;;;;;;;28.35;15.57;;;8.90;99.90;;;;;;5093926;28;20047;-63
2022/03/31 02:02:03;;;;;;;35.00;17.25;;;8.90;99.90;;;;;;5094142;28;20028;-63
2022/03/31 02:04:29;;;;;;;33.97;16.70;;;8.90;99.90;;;;;;5094994;28;20042;-63
2022/03/31 02:06:55;;;;;;;29.90;15.95;;;8.90;99.90;;;;;;5093901;28;20454;-63
2022/03/31 02:09:20;;;;;;;32.70;16.55;;;8.90;99.90;;;;;;5110440;28;20059;-63
2022/03/31 02:11:46;;;;;;;34.55;18.13;;;8.80;99.90;;;;;;5095245;28;20099;-65
2022/03/31 02:14:15;;;;;;;32.28;16.42;;;8.80;99.90;;;;;;5093913;28;20050;-63
2022/03/31 02:16:41;;;;;;;37.53;17.13;;;8.80;99.90;;;;;;5093696;28;20062;-63
2022/03/31 02:19:07;;;;;;;31.05;15.52;;;8.80;99.90;;;;;;5094834;28;20375;-63
2022/03/31 02:21:33;;;;;;;35.03;17.00;;;8.80;99.90;;;;;;5093415;28;20024;-63
2022/03/31 02:23:59;;;;;;;31.10;17.27;;;8.80;99.90;;;;;;5094272;28;20027;-63
2022/03/31 02:26:24;;;;;;;33.13;17.05;;;8.70;99.90;;;;;;5093796;28;20020;-63
2022/03/31 02:29:09;;;;;;;31.27;17.60;;;8.70;99.90;;;;;;5094285;28;20070;-63
2022/03/31 02:31:36;;;;;;;30.58;17.20;;;8.60;99.90;;;;;;5093226;28;20046;-63
2022/03/31 02:34:01;;;;;;;32.10;16.67;;;8.70;99.90;;;;;;5094468;28;20020;-63
2022/03/31 02:36:27;;;;;;;33.80;16.60;;;8.60;99.90;;;;;;5094021;28;20031;-63
2022/03/31 02:38:53;;;;;;;29.60;16.98;;;8.60;99.90;;;;;;5094220;28;20051;-63
2022/03/31 02:41:19;;;;;;;35.30;17.02;;;8.60;99.90;;;;;;5093978;28;20388;-63
2022/03/31 02:43:45;;;;;;;31.67;16.35;;;8.50;99.90;;;;;;5094227;28;20016;-63
2022/03/31 02:46:11;;;;;;;32.53;16.38;;;8.50;99.90;;;;;;5092855;28;20028;-63
2022/03/31 02:48:36;;;;;;;35.28;16.55;;;8.40;99.90;;;;;;5093839;28;20101;-63
2022/03/31 02:51:02;;;;;;;31.67;16.35;;;8.30;99.90;;;;;;5094076;28;20020;-63
2022/03/31 02:56:13;;;;;;;36.38;17.05;;;8.30;99.90;;;;;;5093809;28;20089;-63
2022/03/31 02:58:39;;;;;;;34.50;16.95;;;8.30;99.90;;;;;;5092830;28;20060;-63
2022/03/31 03:01:05;;;;;;;36.58;16.58;;;8.30;99.90;;;;;;5093914;28;20027;-63
2022/03/31 03:03:32;;;;;;;34.42;17.42;;;8.20;99.90;;;;;;5094171;28;20074;-63
2022/03/31 03:05:58;;;;;;;36.97;17.77;;;8.20;99.90;;;;;;5109597;28;20077;-62
2022/03/31 03:08:27;;;;;;;34.53;19.13;;;8.20;99.90;;;;;;5094193;28;20421;-63
2022/03/31 03:10:53;;;;;;;40.97;19.97;;;8.30;99.90;;;;;;5094091;28;20032;-62
2022/03/31 03:13:19;;;;;;;36.75;18.83;;;8.30;99.90;;;;;;5098123;28;20258;-62
2022/03/31 03:15:46;;;;;;;36.00;20.02;;;8.40;99.90;;;;;;5096840;28;20048;-62
2022/03/31 03:18:11;;;;;;;44.55;21.02;;;8.40;99.90;;;;;;5097912;28;20027;-62
2022/03/31 03:20:37;;;;;;;42.75;19.88;;;8.40;99.90;;;;;;5098162;28;20081;-63
2022/03/31 03:23:03;;;;;;;42.65;20.75;;;8.50;99.90;;;;;;5096737;28;20028;-63
2022/03/31 03:25:28;;;;;;;40.63;20.98;;;8.60;99.90;;;;;;5097590;28;20020;-63
2022/03/31 03:27:54;;;;;;;42.90;20.00;;;8.60;99.90;;;;;;5097792;28;20042;-62
2022/03/31 03:30:20;;;;;;;43.33;19.35;;;8.70;99.90;;;;;;5096900;28;20028;-62
2022/03/31 03:32:46;;;;;;;37.58;19.95;;;8.70;99.90;;;;;;5097983;28;20020;-63
2022/03/31 03:35:14;;;;;;;34.10;17.92;;;8.70;99.90;;;;;;5096590;28;20020;-63
2022/03/31 03:37:41;;;;;;;37.35;18.40;;;8.60;99.90;;;;;;5097692;28;20024;-63
2022/03/31 03:40:09;;;;;;;44.92;19.83;;;8.60;99.90;;;;;;5097551;28;20032;-62
2022/03/31 03:42:35;;;;;;;41.72;21.55;;;8.60;99.90;;;;;;5097610;28;20082;-63
2022/03/31 03:45:02;;;;;;;46.42;20.67;;;8.70;99.90;;;;;;5096220;28;20056;-63
2022/03/31 03:47:28;;;;;;;49.38;21.85;;;8.70;99.90;;;;;;5097496;28;20143;-63
2022/03/31 03:49:54;;;;;;;39.65;21.42;;;8.70;99.90;;;;;;5097166;28;20066;-63
2022/03/31 03:52:20;;;;;;;45.30;21.75;;;8.70;99.90;;;;;;5097696;28;20452;-63
2022/03/31 03:54:45;;;;;;;42.70;21.38;;;8.70;99.90;;;;;;5097354;28;20451;-62
2022/03/31 03:57:11;;;;;;;50.13;22.65;;;8.70;99.90;;;;;;5096084;28;20020;-63
2022/03/31 03:59:38;;;;;;;41.55;21.23;;;8.80;99.90;;;;;;5097225;28;20467;-63
2022/03/31 04:02:23;;;;;;;40.00;20.27;;;8.70;99.90;;;;;;5097243;28;20079;-63
2022/03/31 04:04:49;;;;;;;46.40;21.63;;;8.70;99.90;;;;;;5095926;28;20027;-62
2022/03/31 04:07:14;;;;;;;44.97;22.05;;;8.70;99.90;;;;;;5097172;28;20024;-63
2022/03/31 04:09:40;;;;;;;38.90;20.52;;;8.70;99.90;;;;;;5095761;28;20042;-62
2022/03/31 04:12:06;;;;;;;51.78;20.40;;;8.70;99.90;;;;;;5096731;28;20024;-62
2022/03/31 04:14:32;;;;;;;43.47;21.23;;;8.60;99.90;;;;;;5095626;28;20028;-62
2022/03/31 04:16:57;;;;;;;40.67;19.20;;;8.60;99.90;;;;;;5112167;28;20048;-63
2022/03/31 04:19:23;;;;;;;46.35;21.42;;;8.60;99.90;;;;;;5096651;28;20093;-62
2022/03/31 04:21:49;;;;;;;48.88;22.73;;;8.60;99.90;;;;;;5096714;28;20379;-62
2022/03/31 04:24:15;;;;;;;45.47;21.08;;;8.60;99.90;;;;;;5094911;28;20021;-62
2022/03/31 04:26:40;;;;;;;43.53;20.05;;;8.60;99.90;;;;;;5096507;28;20376;-63
2022/03/31 04:29:08;;;;;;;42.03;21.35;;;8.70;99.90;;;;;;5095232;28;20124;-63
2022/03/31 04:31:43;;;;;;;49.63;21.33;;;8.70;99.90;;;;;;5096708;28;20016;-65
2022/03/31 04:34:15;;;;;;;41.00;19.77;;;8.70;99.90;;;;;;5112551;28;20118;-63
2022/03/31 04:40:22;;;;;;;44.00;20.40;;;8.80;99.90;;;;;;5096079;28;20123;-63
2022/03/31 04:42:48;;;;;;;36.20;19.45;;;8.80;99.90;;;;;;5095856;28;20056;-63
2022/03/31 04:45:14;;;;;;;37.40;19.67;;;8.80;99.90;;;;;;5112781;28;20444;-63
2022/03/31 04:47:39;;;;;;;41.45;20.67;;;8.90;99.90;;;;;;5111950;28;20047;-63
2022/03/31 04:50:05;;;;;;;36.70;19.75;;;8.90;99.90;;;;;;5096247;28;20037;-62
2022/03/31 04:52:31;;;;;;;42.13;20.70;;;8.90;99.90;;;;;;5096140;28;20032;-62
2022/03/31 04:54:56;;;;;;;39.30;20.15;;;8.90;99.90;;;;;;5094983;28;20024;-62
2022/03/31 04:57:22;;;;;;;44.40;22.52;;;8.90;99.90;;;;;;5096118;28;20060;-61
2022/03/31 04:59:48;;;;;;;41.53;20.35;;;8.90;99.90;;;;;;5096310;28;20028;-62
2022/03/31 05:02:14;;;;;;;42.17;20.65;;;8.90;99.90;;;;;;5096012;28;20028;-62
2022/03/31 05:04:40;;;;;;;45.90;21.15;;;9.00;99.90;;;;;;5095864;28;20049;-62
2022/03/31 05:07:06;;;;;;;43.22;21.40;;;9.00;99.90;;;;;;5095504;28;20028;-62
2022/03/31 05:09:32;;;;;;;41.45;21.38;;;9.00;99.90;;;;;;5095760;28;20035;-62
2022/03/31 05:11:58;;;;;;;43.22;20.70;;;9.00;99.90;;;;;;5095483;28;20035;-61
2022/03/31 05:14:23;;;;;;;40.90;21.05;;;9.00;99.90;;;;;;5095707;28;20085;-62
2022/03/31 05:16:49;;;;;;;38.42;21.13;;;9.00;99.90;;;;;;5095808;28;20226;-62
2022/03/31 05:19:15;;;;;;;41.67;20.55;;;9.00;99.90;;;;;;5095512;28;20028;-62
2022/03/31 05:21:40;;;;;;;41.38;20.45;;;9.00;99.90;;;;;;5093549;28;20115;-62
2022/03/31 05:27:28;;;;;;;38.65;20.85;;;9.00;99.90;;;;;;5095507;28;20027;-61
2022/03/31 05:29:54;;;;;;;38.88;20.88;;;9.00;99.90;;;;;;5095347;28;20028;-63
2022/03/31 05:32:20;;;;;;;43.17;22.42;;;9.00;99.90;;;;;;5095376;28;20107;-63
2022/03/31 05:34:46;;;;;;;42.55;21.42;;;9.00;99.90;;;;;;5094354;28;20020;-62
2022/03/31 05:37:11;;;;;;;43.20;22.45;;;9.00;99.90;;;;;;5094790;28;20027;-63
2022/03/31 05:39:37;;;;;;;42.63;21.17;;;9.00;99.90;;;;;;5095354;28;20028;-63
2022/03/31 05:42:03;;;;;;;48.13;23.15;;;9.00;99.90;;;;;;5094968;28;20119;-62
2022/03/31 05:44:29;;;;;;;48.15;23.42;;;9.00;99.90;;;;;;5095182;28;20110;-62
2022/03/31 05:46:55;;;;;;;45.05;21.33;;;9.00;99.90;;;;;;5094104;28;20060;-62
2022/03/31 05:49:21;;;;;;;41.33;22.40;;;9.00;99.90;;;;;;5095050;28;20036;-63
2022/03/31 05:51:46;;;;;;;43.58;23.63;;;9.10;99.90;;;;;;5095000;28;20027;-62
2022/03/31 05:54:12;;;;;;;46.20;22.13;;;9.10;99.90;;;;;;5094808;28;20114;-62
2022/03/31 05:56:38;;;;;;;39.95;21.92;;;9.10;99.90;;;;;;5110830;28;20077;-63
2022/03/31 05:59:05;;;;;;;47.63;23.13;;;9.10;99.90;;;;;;5094820;28;20064;-63
2022/03/31 06:04:53;;;;;;;49.63;22.80;;;9.20;99.90;;;;;;5095027;28;20039;-62
2022/03/31 06:07:18;;;;;;;49.67;24.48;;;9.20;99.90;;;;;;5094702;28;20460;-62
2022/03/31 06:09:44;;;;;;;46.10;23.33;;;9.20;99.90;;;;;;5094779;28;20039;-62
2022/03/31 06:12:10;;;;;;;48.35;24.73;;;9.20;99.90;;;;;;5094517;28;20456;-64
2022/03/31 06:14:35;;;;;;;56.08;25.52;;;9.20;99.90;;;;;;5094349;28;20103;-64
2022/03/31 06:17:01;;;;;;;49.35;23.63;;;9.20;99.90;;;;;;5095275;28;20048;-64
2022/03/31 06:19:27;;;;;;;51.47;24.38;;;9.30;99.90;;;;;;5094155;28;20060;-64
2022/03/31 06:21:52;;;;;;;53.67;23.38;;;9.30;99.90;;;;;;5093192;28;20474;-64
2022/03/31 06:24:37;;;;;;;51.42;25.58;;;9.30;99.90;;;;;;5093519;28;20047;-64
2022/03/31 06:27:06;;;;;;;50.78;25.77;;;9.30;99.90;;;;;;5094447;28;20055;-64
2022/03/31 06:29:32;;;;;;;57.03;25.80;;;9.30;99.90;;;;;;5093685;28;20325;-64
2022/03/31 06:31:58;;;;;;;45.50;25.20;;;9.40;99.90;;;;;;5094387;28;20111;-64
2022/03/31 06:34:23;;;;;;;47.63;24.48;;;9.40;99.90;;;;;;5094250;28;20123;-64
2022/03/31 06:40:13;;;;;;;50.00;24.20;;;9.30;99.90;;;;;;5094128;28;20391;-64
2022/03/31 06:42:40;;;;;;;54.83;26.23;;;9.30;99.90;;;;;;5094390;28;20059;-65
2022/03/31 06:45:12;;;;;;;51.35;24.75;;;9.30;99.90;;;;;;5094193;28;20098;-64
2022/03/31 06:47:42;;;;;;;55.72;25.88;;;9.30;99.90;;;;;;5095202;28;20020;-64
2022/03/31 06:50:10;;;;;;;54.53;24.88;;;9.30;99.90;;;;;;5095130;28;20039;-66
2022/03/31 06:52:36;;;;;;;57.10;26.02;;;9.30;99.90;;;;;;5094879;28;20024;-65
2022/03/31 06:55:03;;;;;;;50.67;27.38;;;9.30;99.90;;;;;;5095145;28;20036;-65
2022/03/31 06:57:28;;;;;;;62.17;28.02;;;9.20;99.90;;;;;;5094510;28;20077;-64
2022/03/31 06:59:54;;;;;;;57.65;26.30;;;9.20;99.90;;;;;;5094354;28;20050;-64
2022/03/31 07:02:20;;;;;;;68.45;29.83;;;9.20;99.90;;;;;;5093016;28;20025;-64
2022/03/31 07:04:45;;;;;;;55.58;27.55;;;9.20;99.90;;;;;;5094117;28;20024;-64
2022/03/31 07:07:11;;;;;;;59.55;28.98;;;9.20;99.90;;;;;;5092728;28;20020;-64
2022/03/31 07:09:37;;;;;;;62.45;30.92;;;9.10;99.90;;;;;;5093952;28;20103;-65
2022/03/31 07:12:03;;;;;;;59.47;29.58;;;9.10;99.90;;;;;;5093896;28;20116;-63
2022/03/31 07:14:31;;;;;;;59.20;29.70;;;9.00;99.90;;;;;;5093857;28;20577;-64
2022/03/31 07:16:57;;;;;;;44.13;22.60;;;9.10;99.90;;;;;;5092529;28;20044;-64
2022/03/31 07:19:23;;;;;;;65.05;32.05;;;9.10;99.90;;;;;;5094050;28;20039;-63
2022/03/31 07:21:51;;;;;;;70.80;33.33;;;9.00;99.90;;;;;;5109469;28;20113;-63
2022/03/31 07:24:17;;;;;;;67.82;32.30;;;9.00;99.90;;;;;;5093787;28;20410;-64
2022/03/31 07:26:43;;;;;;;66.55;32.15;;;9.00;99.90;;;;;;5093733;28;20078;-63
2022/03/31 07:29:09;;;;;;;64.38;32.88;;;9.00;99.90;;;;;;5109472;28;20024;-64
2022/03/31 07:31:35;;;;;;;70.97;33.05;;;9.00;99.90;;;;;;5109483;28;20373;-63
2022/03/31 07:34:00;;;;;;;68.85;34.70;;;8.90;99.90;;;;;;5093569;28;20436;-63
2022/03/31 07:36:26;;;;;;;73.80;34.50;;;8.90;99.90;;;;;;5092573;28;20034;-62
2022/03/31 07:38:52;;;;;;;73.93;33.90;;;8.90;99.90;;;;;;5092294;28;20025;-64
2022/03/31 07:41:18;;;;;;;70.38;33.95;;;8.90;99.90;;;;;;5093326;28;20040;-64
2022/03/31 07:43:44;;;;;;;76.05;35.33;;;8.80;99.90;;;;;;5093847;28;20471;-64
2022/03/31 07:46:10;;;;;;;68.43;34.25;;;8.80;99.90;;;;;;5091967;28;20115;-64
2022/03/31 07:48:37;;;;;;;78.47;37.35;;;8.80;99.90;;;;;;5093154;28;20111;-64
2022/03/31 07:54:24;;;;;;;78.35;35.83;;;8.80;99.90;;;;;;5093569;28;20093;-64
2022/03/31 07:56:51;;;;;;;83.65;35.88;;;8.80;99.90;;;;;;5093434;28;20060;-64
2022/03/31 07:59:23;;;;;;;82.88;36.72;;;8.80;99.90;;;;;;5096850;28;20035;-65
2022/03/31 08:01:49;;;;;;;79.85;35.50;;;8.80;99.90;;;;;;5097394;28;20028;-64
2022/03/31 08:04:16;;;;;;;78.13;37.00;;;8.70;99.90;;;;;;5096022;28;20533;-66
2022/03/31 08:06:43;;;;;;;83.35;36.42;;;8.80;99.90;;;;;;5097212;28;20024;-63
2022/03/31 08:09:10;;;;;;;83.45;36.78;;;8.80;99.90;;;;;;5097521;28;20036;-63
2022/03/31 08:11:36;;;;;;;87.32;37.65;;;8.70;99.90;;;;;;5112974;28;20031;-62
2022/03/31 08:14:02;;;;;;;90.70;40.20;;;8.70;99.90;;;;;;5097222;28;20048;-63
2022/03/31 08:16:28;;;;;;;81.40;37.90;;;8.80;99.90;;;;;;5096647;28;20454;-63
2022/03/31 08:18:54;;;;;;;85.00;39.83;;;8.80;99.90;;;;;;5096583;28;20107;-63
2022/03/31 08:21:20;;;;;;;87.97;39.10;;;8.80;99.90;;;;;;5095241;28;20024;-63
2022/03/31 08:23:45;;;;;;;84.22;38.63;;;8.80;99.90;;;;;;5096255;28;20027;-64
2022/03/31 08:26:11;;;;;;;96.20;40.72;;;8.60;99.90;;;;;;5096052;28;20028;-64
2022/03/31 08:28:37;;;;;;;88.85;40.17;;;8.60;99.90;;;;;;5096612;28;20376;-63
2022/03/31 08:31:03;;;;;;;101.03;40.42;;;8.60;99.90;;;;;;5096634;28;20432;-63
2022/03/31 08:33:29;;;;;;;90.03;39.53;;;8.70;99.90;;;;;;5096194;28;20024;-65
2022/03/31 08:35:55;;;;;;;93.95;41.53;;;8.60;99.90;;;;;;5095369;28;20412;-65
2022/03/31 08:38:21;;;;;;;83.10;39.53;;;8.60;99.90;;;;;;5096700;28;20078;-64
2022/03/31 08:40:47;;;;;;;88.38;39.42;;;8.60;99.90;;;;;;5096372;28;20031;-64
2022/03/31 08:43:13;;;;;;;88.57;41.35;;;8.60;99.90;;;;;;5095183;28;20027;-64
2022/03/31 08:45:40;;;;;;;84.22;40.47;;;8.70;99.90;;;;;;5095048;28;20027;-63
2022/03/31 08:48:07;;;;;;;84.10;37.30;;;9.00;99.90;;;;;;5096167;28;20020;-64
2022/03/31 08:50:35;;;;;;;81.85;39.47;;;8.70;99.90;;;;;;5096291;28;20095;-63
2022/03/31 08:53:01;;;;;;;76.93;37.70;;;8.80;99.90;;;;;;5095103;28;20494;-64
2022/03/31 08:55:27;;;;;;;73.50;36.15;;;8.80;99.90;;;;;;5095870;28;20031;-63
2022/03/31 08:57:56;;;;;;;77.55;38.47;;;8.80;99.90;;;;;;5095967;28;20020;-64
2022/03/31 09:00:23;;;;;;;74.40;36.63;;;8.80;99.90;;;;;;5094717;28;20078;-63
2022/03/31 09:03:01;;;;;;;74.15;36.17;;;8.80;99.90;;;;;;5096103;28;20081;-64
2022/03/31 09:05:35;;;;;;;68.65;35.28;;;8.80;99.90;;;;;;5096433;28;20452;-64
2022/03/31 09:08:02;;;;;;;67.75;34.53;;;8.80;99.90;;;;;;5094824;28;20032;-64
2022/03/31 09:10:34;;;;;;;71.10;36.03;;;8.80;99.90;;;;;;5094677;28;20051;-64
2022/03/31 09:13:03;;;;;;;66.07;34.25;;;8.80;99.90;;;;;;5095902;28;20106;-64
2022/03/31 09:15:29;;;;;;;69.15;33.35;;;8.80;99.90;;;;;;5094315;28;20040;-64
2022/03/31 09:17:59;;;;;;;64.15;33.63;;;8.80;99.90;;;;;;5094612;28;20572;-64
2022/03/31 09:20:40;;;;;;;60.90;31.70;;;8.80;99.90;;;;;;5094735;28;20035;-63
2022/03/31 09:23:06;;;;;;;56.63;29.42;;;8.80;99.90;;;;;;5094687;28;20028;-64
2022/03/31 09:25:32;;;;;;;58.58;29.92;;;8.80;99.90;;;;;;5095629;28;20024;-65
2022/03/31 09:28:00;;;;;;;52.85;29.15;;;8.70;99.90;;;;;;5095280;28;20027;-63
2022/03/31 09:30:27;;;;;;;59.95;31.77;;;8.70;99.90;;;;;;5095567;28;20024;-63
2022/03/31 09:32:53;;;;;;;51.33;27.88;;;8.70;99.90;;;;;;5094378;28;20028;-64
2022/03/31 09:35:23;;;;;;;55.25;29.35;;;8.70;99.90;;;;;;5095147;28;20518;-64
2022/03/31 09:37:51;;;;;;;47.03;27.63;;;8.70;99.90;;;;;;5094403;28;20051;-64
2022/03/31 09:40:19;;;;;;;51.70;28.98;;;8.80;99.90;;;;;;5093992;28;20114;-64
2022/03/31 09:42:59;;;;;;;52.38;28.90;;;8.80;99.90;;;;;;5094616;28;20028;-64
2022/03/31 09:45:35;;;;;;;49.58;28.50;;;8.80;99.90;;;;;;5095566;28;20471;-64
2022/03/31 09:48:01;;;;;;;52.35;27.77;;;8.80;99.90;;;;;;5095245;28;20024;-64
2022/03/31 09:50:33;;;;;;;56.78;29.65;;;8.80;99.90;;;;;;5093782;28;20157;-64
2022/03/31 09:53:00;;;;;;;54.45;27.35;;;8.80;99.90;;;;;;5095152;28;20036;-64
2022/03/31 09:55:26;;;;;;;49.40;26.42;;;8.90;99.90;;;;;;5095400;28;20028;-64
2022/03/31 09:57:53;;;;;;;51.67;26.55;;;8.90;99.90;;;;;;5094969;28;20035;-64
2022/03/31 10:00:20;;;;;;;48.35;27.10;;;8.90;99.90;;;;;;5093618;28;20038;-64
2022/03/31 10:02:47;;;;;;;50.55;26.77;;;8.80;99.90;;;;;;5094535;28;20082;-67
2022/03/31 10:05:15;;;;;;;48.65;26.38;;;8.80;99.90;;;;;;5095164;28;20539;-65
2022/03/31 10:07:44;;;;;;;41.93;24.07;;;8.70;99.90;;;;;;5094899;28;20107;-64
2022/03/31 10:10:09;;;;;;;41.17;22.38;;;8.70;99.90;;;;;;5094597;28;20138;-65
2022/03/31 10:12:47;;;;;;;47.67;23.65;;;8.70;99.90;;;;;;5095091;28;20496;-65
2022/03/31 10:15:28;;;;;;;35.50;21.13;;;8.70;99.90;;;;;;5093485;28;20376;-65
2022/03/31 10:17:54;;;;;;;36.17;20.50;;;8.60;99.90;;;;;;5094971;28;20035;-64
2022/03/31 10:20:21;;;;;;;34.30;19.13;;;8.60;99.90;;;;;;5092810;28;20499;-64
2022/03/31 10:26:02;;;;;;;32.20;18.77;;;8.60;99.90;;;;;;5094486;28;20123;-64
2022/03/31 10:28:28;;;;;;;32.45;18.85;;;8.60;99.90;;;;;;5094252;28;20103;-64
2022/03/31 10:31:05;;;;;;;34.17;19.73;;;8.60;99.90;;;;;;5093614;28;20062;-64
2022/03/31 10:33:42;;;;;;;31.98;18.38;;;8.60;99.90;;;;;;5094354;28;20061;-63
2022/03/31 10:36:13;;;;;;;33.13;19.45;;;8.60;99.90;;;;;;5094422;28;20042;-64
2022/03/31 10:39:03;;;;;;;35.15;20.45;;;8.60;99.90;;;;;;5093302;28;20028;-64
2022/03/31 10:41:30;;;;;;;31.13;18.98;;;8.50;99.90;;;;;;5094726;28;20031;-64
2022/03/31 10:43:59;;;;;;;33.45;19.38;;;8.50;99.90;;;;;;5092889;28;20024;-64
2022/03/31 10:46:28;;;;;;;39.37;21.73;;;8.50;99.90;;;;;;5094188;28;20115;-64
2022/03/31 10:48:55;;;;;;;35.35;19.05;;;8.50;99.90;;;;;;5094255;28;20081;-63
2022/03/31 10:51:32;;;;;;;34.67;18.48;;;8.60;99.90;;;;;;5092794;28;20028;-63
2022/03/31 10:53:58;;;;;;;37.90;20.10;;;8.60;99.90;;;;;;5094075;28;20028;-65
2022/03/31 10:56:26;;;;;;;36.60;20.23;;;8.60;99.90;;;;;;5094102;28;20020;-64
2022/03/31 10:58:55;;;;;;;36.00;19.55;;;8.70;99.90;;;;;;5092585;28;20402;-64
2022/03/31 11:01:22;;;;;;;36.03;19.20;;;8.70;99.90;;;;;;5093684;28;20031;-64
2022/03/31 11:03:50;;;;;;;27.83;15.77;;;8.70;99.90;;;;;;5092961;28;20031;-64
2022/03/31 11:06:17;;;;;;;28.92;16.83;;;8.70;99.90;;;;;;5092633;28;20455;-64
2022/03/31 11:12:05;;;;;;;33.65;17.70;;;8.60;99.90;;;;;;5093869;28;20026;-64
2022/03/31 11:14:31;;;;;;;26.02;16.92;;;8.60;99.90;;;;;;5093919;28;20035;-65
2022/03/31 11:16:56;;;;;;;31.60;16.40;;;8.50;99.90;;;;;;5091998;28;20051;-65
2022/03/31 11:19:22;;;;;;;24.92;15.93;;;8.60;99.90;;;;;;5093906;28;20024;-64
2022/03/31 11:21:48;;;;;;;27.38;15.25;;;8.60;99.90;;;;;;5093024;28;20035;-65
2022/03/31 11:24:14;;;;;;;27.92;16.10;;;8.70;99.90;;;;;;5093109;28;20024;-66
2022/03/31 11:26:44;;;;;;;26.30;14.32;;;8.60;99.90;;;;;;5092942;28;20025;-64
2022/03/31 11:29:15;;;;;;;23.52;15.18;;;8.70;99.90;;;;;;5092745;28;20474;-65
2022/03/31 11:31:51;;;;;;;26.08;15.57;;;8.70;99.90;;;;;;5093872;28;20031;-64
2022/03/31 11:34:17;;;;;;;23.45;14.57;;;8.60;99.90;;;;;;5097229;28;20028;-64
2022/03/31 11:36:43;;;;;;;25.67;15.63;;;8.60;99.90;;;;;;5098031;28;20099;-64
2022/03/31 11:39:10;;;;;;;25.23;15.45;;;8.50;99.90;;;;;;5097674;28;20577;-63
2022/03/31 11:41:42;;;;;;;25.52;15.35;;;8.50;99.90;;;;;;5097735;28;20372;-63
2022/03/31 11:44:08;;;;;;;29.42;16.45;;;8.50;99.90;;;;;;5097812;28;20020;-64
2022/03/31 11:46:42;;;;;;;27.13;17.02;;;8.50;99.90;;;;;;5096166;28;20031;-64
2022/03/31 11:49:20;;;;;;;25.02;15.70;;;8.50;99.90;;;;;;5096597;28;20126;-65
2022/03/31 11:51:49;;;;;;;24.88;16.25;;;8.50;99.90;;;;;;5096346;28;20047;-64
2022/03/31 11:54:15;;;;;;;25.13;16.45;;;8.50;99.90;;;;;;5096104;28;20036;-64
2022/03/31 11:56:41;;;;;;;24.95;15.77;;;8.50;99.90;;;;;;5097248;28;20110;-64
2022/03/31 11:59:07;;;;;;;27.75;16.33;;;8.50;99.90;;;;;;5097152;28;20035;-64
2022/03/31 12:01:37;;;;;;;26.10;15.82;;;8.50;99.90;;;;;;5095996;28;20024;-63
2022/03/31 12:04:07;;;;;;;25.42;16.35;;;8.50;99.90;;;;;;5096644;28;20020;-65
2022/03/31 12:06:33;;;;;;;26.25;15.30;;;8.50;99.90;;;;;;5097332;28;20024;-64
2022/03/31 12:08:59;;;;;;;28.05;16.05;;;8.40;99.90;;;;;;5095823;28;20032;-63
2022/03/31 12:11:25;;;;;;;26.05;15.82;;;8.50;99.90;;;;;;5095837;28;20024;-63
2022/03/31 12:13:53;;;;;;;28.20;17.05;;;8.50;99.90;;;;;;5095638;28;20115;-64
2022/03/31 12:16:20;;;;;;;28.02;16.88;;;8.40;99.90;;;;;;5095384;28;20123;-63
2022/03/31 12:18:53;;;;;;;31.25;18.10;;;8.50;99.90;;;;;;5097028;28;20059;-63
2022/03/31 12:21:19;;;;;;;27.52;17.13;;;8.40;99.90;;;;;;5097166;28;20095;-64
2022/03/31 12:23:46;;;;;;;29.88;18.20;;;8.40;99.90;;;;;;5095609;28;20030;-63
2022/03/31 12:26:18;;;;;;;29.88;17.75;;;8.40;99.90;;;;;;5097307;28;20024;-64
2022/03/31 12:29:03;;;;;;;26.48;15.88;;;8.30;99.90;;;;;;5096990;28;20077;-63
2022/03/31 12:31:31;;;;;;;31.00;17.20;;;8.30;99.90;;;;;;5097135;28;20024;-64
2022/03/31 12:33:58;;;;;;;29.02;17.17;;;8.30;99.90;;;;;;5096744;28;20016;-64
2022/03/31 12:36:26;;;;;;;35.28;17.42;;;8.30;99.90;;;;;;5096621;28;20024;-64
2022/03/31 12:38:54;;;;;;;26.92;16.38;;;8.30;99.90;;;;;;5095416;28;20046;-65
2022/03/31 12:41:36;;;;;;;29.95;18.02;;;8.20;99.90;;;;;;5095495;28;20039;-65
2022/03/31 12:44:22;;;;;;;32.53;17.52;;;8.30;99.90;;;;;;5095148;28;20028;-63
2022/03/31 12:46:59;;;;;;;31.38;17.50;;;8.30;99.90;;;;;;5096497;28;20027;-64
2022/03/31 12:49:36;;;;;;;28.23;16.95;;;8.20;99.90;;;;;;5096631;28;20025;-65
2022/03/31 12:52:09;;;;;;;21.50;14.32;;;8.30;99.90;;;;;;5096419;28;20032;-66
2022/03/31 12:54:39;;;;;;;24.42;14.68;;;8.30;99.90;;;;;;5096450;28;20035;-64
2022/03/31 12:57:12;;;;;;;23.10;14.30;;;8.20;99.90;;;;;;5096516;28;20040;-64
2022/03/31 12:59:38;;;;;;;29.30;16.88;;;8.20;99.90;;;;;;5095817;28;20361;-63
2022/03/31 13:02:06;;;;;;;27.80;16.70;;;8.20;99.90;;;;;;5094562;28;20054;-64
2022/03/31 13:04:45;;;;;;;22.02;14.93;;;8.20;99.90;;;;;;5094770;28;20467;-64